sensor_id;sensor_type;location;lat;lon;timestamp;pressure;altitude;pressure_sealevel;temperature;humidity
59767;BME280;46248;58.364;25.582;2023-01-10T00:00:57;100359.19;;;-6.04;86.14
59767;BME280;46248;58.364;25.582;2023-01-10T00:04:19;100342.97;;;-6.11;86.37
59767;BME280;46248;58.364;25.582;2023-01-10T00:07:41;100355.75;;;-6.06;85.35
59767;BME280;46248;58.364;25.582;2023-01-10T00:11:03;100368.53;;;-6.05;86.03
59767;BME280;46248;58.364;25.582;2023-01-10T00:14:47;100361.75;;;-6.04;86.36
59767;BME280;46248;58.364;25.582;2023-01-10T00:18:10;100368.56;;;-6.03;85.93
59767;BME280;46248;58.364;25.582;2023-01-10T00:21:32;100377.91;;;-6.04;86.79
59767;BME280;46248;58.364;25.582;2023-01-10T00:24:54;100375.34;;;-6.02;86.51
59767;BME280;46248;58.364;25.582;2023-01-10T00:28:16;100374.53;;;-6.01;86.48
59767;BME280;46248;58.364;25.582;2023-01-10T00:31:41;100383.84;;;-6.03;86.47
59767;BME280;46248;58.364;25.582;2023-01-10T00:35:04;100383.81;;;-6.06;86.32
59767;BME280;46248;58.364;25.582;2023-01-10T00:38:28;100379.56;;;-6.06;86.83
59767;BME280;46248;58.364;25.582;2023-01-10T00:41:51;100377.84;;;-6.05;86.70
59767;BME280;46248;58.364;25.582;2023-01-10T00:45:31;100370.22;;;-6.05;87.08
59767;BME280;46248;58.364;25.582;2023-01-10T00:48:54;100366.81;;;-6.06;86.88
59767;BME280;46248;58.364;25.582;2023-01-10T00:52:17;100353.25;;;-6.05;86.82
59767;BME280;46248;58.364;25.582;2023-01-10T00:55:39;100343.84;;;-6.09;87.89
59767;BME280;46248;58.364;25.582;2023-01-10T00:59:01;100352.38;;;-6.05;87.52
59767;BME280;46248;58.364;25.582;2023-01-10T01:02:23;100355.81;;;-6.05;88.53
59767;BME280;46248;58.364;25.582;2023-01-10T01:05:49;100362.53;;;-6.08;89.07
59767;BME280;46248;58.364;25.582;2023-01-10T01:09:12;100365.06;;;-6.10;89.39
59767;BME280;46248;58.364;25.582;2023-01-10T01:12:34;100347.09;;;-6.17;89.19
59767;BME280;46248;58.364;25.582;2023-01-10T01:15:57;100359.88;;;-6.16;89.35
59767;BME280;46248;58.364;25.582;2023-01-10T01:19:20;100340.25;;;-6.22;88.88
59767;BME280;46248;58.364;25.582;2023-01-10T01:22:43;100342.91;;;-6.17;88.69
59767;BME280;46248;58.364;25.582;2023-01-10T01:26:05;100311.25;;;-6.31;88.48
59767;BME280;46248;58.364;25.582;2023-01-10T01:29:27;100339.50;;;-6.14;89.09
59767;BME280;46248;58.364;25.582;2023-01-10T01:33:02;100331.94;;;-6.10;88.49
59767;BME280;46248;58.364;25.582;2023-01-10T01:36:24;100325.94;;;-6.12;88.10
59767;BME280;46248;58.364;25.582;2023-01-10T01:39:47;100338.78;;;-6.06;87.99
59767;BME280;46248;58.364;25.582;2023-01-10T01:43:20;100343.06;;;-6.05;88.74
59767;BME280;46248;58.364;25.582;2023-01-10T01:46:44;100338.78;;;-6.06;88.13
59767;BME280;46248;58.364;25.582;2023-01-10T01:50:13;100341.34;;;-6.04;88.21
59767;BME280;46248;58.364;25.582;2023-01-10T01:53:39;100325.09;;;-6.12;88.10
59767;BME280;46248;58.364;25.582;2023-01-10T01:57:08;100325.19;;;-6.06;87.19
59767;BME280;46248;58.364;25.582;2023-01-10T02:00:31;100330.31;;;-6.05;87.38
59767;BME280;46248;58.364;25.582;2023-01-10T02:03:59;100330.31;;;-6.05;87.49
59767;BME280;46248;58.364;25.582;2023-01-10T02:07:23;100323.50;;;-6.04;87.56
59767;BME280;46248;58.364;25.582;2023-01-10T02:10:51;100331.19;;;-6.01;88.12
59767;BME280;46248;58.364;25.582;2023-01-10T02:14:15;100314.13;;;-6.05;87.36
59767;BME280;46248;58.364;25.582;2023-01-10T02:17:38;100322.75;;;-5.98;87.60
59767;BME280;46248;58.364;25.582;2023-01-10T02:21:11;100327.81;;;-6.00;88.03
59767;BME280;46248;58.364;25.582;2023-01-10T02:24:51;100332.06;;;-5.99;88.80
59767;BME280;46248;58.364;25.582;2023-01-10T02:28:36;100324.41;;;-5.99;88.85
59767;BME280;46248;58.364;25.582;2023-01-10T02:32:21;100315.03;;;-6.05;89.15
59767;BME280;46248;58.364;25.582;2023-01-10T02:36:15;100320.97;;;-6.04;89.37
59767;BME280;46248;58.364;25.582;2023-01-10T02:39:48;100318.38;;;-6.06;89.92
59767;BME280;46248;58.364;25.582;2023-01-10T02:43:15;100310.72;;;-6.07;90.11
59767;BME280;46248;58.364;25.582;2023-01-10T02:46:39;100291.00;;;-6.22;90.59
59767;BME280;46248;58.364;25.582;2023-01-10T02:53:57;100298.00;;;-6.07;90.83
59767;BME280;46248;58.364;25.582;2023-01-10T02:57:33;100296.22;;;-6.13;91.30
59767;BME280;46248;58.364;25.582;2023-01-10T03:01:01;100309.84;;;-6.09;91.49
59767;BME280;46248;58.364;25.582;2023-01-10T03:04:32;100317.53;;;-6.08;91.71
59767;BME280;46248;58.364;25.582;2023-01-10T03:08:05;100321.78;;;-6.07;91.66
59767;BME280;46248;58.364;25.582;2023-01-10T03:11:32;100314.06;;;-6.11;91.96
59767;BME280;46248;58.364;25.582;2023-01-10T03:15:02;100309.00;;;-6.10;92.33
59767;BME280;46248;58.364;25.582;2023-01-10T03:18:30;100309.88;;;-6.08;92.63
59767;BME280;46248;58.364;25.582;2023-01-10T03:21:56;100303.09;;;-6.06;92.54
59767;BME280;46248;58.364;25.582;2023-01-10T03:25:23;100290.34;;;-6.07;92.55
59767;BME280;46248;58.364;25.582;2023-01-10T03:28:50;100291.16;;;-6.08;93.02
59767;BME280;46248;58.364;25.582;2023-01-10T03:32:14;100290.31;;;-6.10;92.97
59767;BME280;46248;58.364;25.582;2023-01-10T03:35:58;100277.53;;;-6.13;93.03
59767;BME280;46248;58.364;25.582;2023-01-10T03:39:29;100294.56;;;-6.09;92.89
59767;BME280;46248;58.364;25.582;2023-01-10T03:42:56;100273.16;;;-6.22;93.02
59767;BME280;46248;58.364;25.582;2023-01-10T03:46:43;100297.94;;;-6.09;93.21
59767;BME280;46248;58.364;25.582;2023-01-10T03:50:11;100289.44;;;-6.11;92.99
59767;BME280;46248;58.364;25.582;2023-01-10T03:53:36;100297.94;;;-6.09;93.28
59767;BME280;46248;58.364;25.582;2023-01-10T03:56:58;100295.41;;;-6.09;92.87
59767;BME280;46248;58.364;25.582;2023-01-10T04:00:22;100291.16;;;-6.08;93.04
59767;BME280;46248;58.364;25.582;2023-01-10T04:03:46;100281.78;;;-6.12;92.78
59767;BME280;46248;58.364;25.582;2023-01-10T04:07:09;100280.13;;;-6.09;93.47
59767;BME280;46248;58.364;25.582;2023-01-10T04:10:30;100298.00;;;-6.06;93.15
59767;BME280;46248;58.364;25.582;2023-01-10T04:13:52;100297.19;;;-6.05;93.00
59767;BME280;46248;58.364;25.582;2023-01-10T04:17:15;100291.16;;;-6.10;93.00
59767;BME280;46248;58.364;25.582;2023-01-10T04:20:38;100259.56;;;-6.21;93.55
59767;BME280;46248;58.364;25.582;2023-01-10T04:24:00;100277.53;;;-6.13;93.34
59767;BME280;46248;58.364;25.582;2023-01-10T04:27:22;100289.50;;;-6.08;93.29
59767;BME280;46248;58.364;25.582;2023-01-10T04:30:45;100289.50;;;-6.08;93.81
59767;BME280;46248;58.364;25.582;2023-01-10T04:34:07;100282.69;;;-6.06;93.49
59767;BME280;46248;58.364;25.582;2023-01-10T04:37:30;100284.44;;;-6.03;93.10
59767;BME280;46248;58.364;25.582;2023-01-10T04:40:54;100288.72;;;-6.01;93.01
59767;BME280;46248;58.364;25.582;2023-01-10T04:44:16;100282.78;;;-6.01;93.56
59767;BME280;46248;58.364;25.582;2023-01-10T04:47:38;100281.97;;;-5.98;92.89
59767;BME280;46248;58.364;25.582;2023-01-10T04:51:00;100263.13;;;-6.10;93.01
59767;BME280;46248;58.364;25.582;2023-01-10T04:54:24;100282.81;;;-5.98;92.72
59767;BME280;46248;58.364;25.582;2023-01-10T04:57:46;100284.44;;;-6.03;93.08
59767;BME280;46248;58.364;25.582;2023-01-10T05:01:08;100298.13;;;-5.95;94.04
59767;BME280;46248;58.364;25.582;2023-01-10T05:04:30;100304.94;;;-5.92;93.19
59767;BME280;46248;58.364;25.582;2023-01-10T05:07:52;100301.53;;;-5.91;93.26
59767;BME280;46248;58.364;25.582;2023-01-10T05:11:16;100299.88;;;-5.89;93.60
59767;BME280;46248;58.364;25.582;2023-01-10T05:14:38;100293.97;;;-5.87;93.58
59767;BME280;46248;58.364;25.582;2023-01-10T05:18:00;100288.84;;;-5.88;93.81
59767;BME280;46248;58.364;25.582;2023-01-10T05:21:21;100279.47;;;-5.88;93.52
59767;BME280;46248;58.364;25.582;2023-01-10T05:24:43;100276.09;;;-5.88;93.12
59767;BME280;46248;58.364;25.582;2023-01-10T05:28:07;100275.25;;;-5.86;93.43
59767;BME280;46248;58.364;25.582;2023-01-10T05:31:28;100276.13;;;-5.85;93.59
59767;BME280;46248;58.364;25.582;2023-01-10T05:34:50;100286.31;;;-5.85;93.87
59767;BME280;46248;58.364;25.582;2023-01-10T05:38:13;100294.00;;;-5.82;93.42
59767;BME280;46248;58.364;25.582;2023-01-10T05:41:35;100293.19;;;-5.80;93.08
59767;BME280;46248;58.364;25.582;2023-01-10T05:44:58;100290.63;;;-5.78;93.36
59767;BME280;46248;58.364;25.582;2023-01-10T05:48:21;100294.91;;;-5.76;92.88
59767;BME280;46248;58.364;25.582;2023-01-10T05:51:43;100294.94;;;-5.74;93.39
59767;BME280;46248;58.364;25.582;2023-01-10T05:55:06;100292.41;;;-5.72;93.46
59767;BME280;46248;58.364;25.582;2023-01-10T05:58:28;100294.13;;;-5.70;93.26
59767;BME280;46248;58.364;25.582;2023-01-10T06:01:52;100289.06;;;-5.68;93.19
59767;BME280;46248;58.364;25.582;2023-01-10T06:05:14;100296.75;;;-5.64;93.12
59767;BME280;46248;58.364;25.582;2023-01-10T06:08:36;100299.31;;;-5.65;93.55
59767;BME280;46248;58.364;25.582;2023-01-10T06:11:58;100295.84;;;-5.70;93.38
59767;BME280;46248;58.364;25.582;2023-01-10T06:15:20;100308.66;;;-5.64;93.01
59767;BME280;46248;58.364;25.582;2023-01-10T06:18:43;100301.88;;;-5.61;93.34
59767;BME280;46248;58.364;25.582;2023-01-10T06:22:05;100305.28;;;-5.62;93.81
59767;BME280;46248;58.364;25.582;2023-01-10T06:25:27;100302.81;;;-5.56;94.26
59767;BME280;46248;58.364;25.582;2023-01-10T06:28:49;100297.72;;;-5.53;92.69
59767;BME280;46248;58.364;25.582;2023-01-10T06:32:11;100301.97;;;-5.52;93.04
59767;BME280;46248;58.364;25.582;2023-01-10T06:35:34;100310.53;;;-5.48;92.70
59767;BME280;46248;58.364;25.582;2023-01-10T06:38:56;100310.56;;;-5.46;92.37
59767;BME280;46248;58.364;25.582;2023-01-10T06:42:18;100298.66;;;-5.47;92.25
59767;BME280;46248;58.364;25.582;2023-01-10T06:45:40;100304.66;;;-5.41;92.46
59767;BME280;46248;58.364;25.582;2023-01-10T06:49:02;100306.34;;;-5.40;92.17
59767;BME280;46248;58.364;25.582;2023-01-10T06:52:26;100315.75;;;-5.37;92.43
59767;BME280;46248;58.364;25.582;2023-01-10T06:55:48;100319.16;;;-5.37;92.35
59767;BME280;46248;58.364;25.582;2023-01-10T06:59:10;100296.94;;;-5.45;92.85
59767;BME280;46248;58.364;25.582;2023-01-10T07:02:32;100291.97;;;-5.33;92.81
59767;BME280;46248;58.364;25.582;2023-01-10T07:05:54;100310.72;;;-5.28;92.62
59767;BME280;46248;58.364;25.582;2023-01-10T07:09:17;100301.41;;;-5.26;92.40
59767;BME280;46248;58.364;25.582;2023-01-10T07:12:39;100306.53;;;-5.23;92.89
59767;BME280;46248;58.364;25.582;2023-01-10T07:16:02;100307.41;;;-5.18;92.82
59767;BME280;46248;58.364;25.582;2023-01-10T07:19:24;100318.50;;;-5.16;92.60
59767;BME280;46248;58.364;25.582;2023-01-10T07:22:52;100318.53;;;-5.13;93.24
59767;BME280;46248;58.364;25.582;2023-01-10T07:26:17;100321.06;;;-5.16;92.69
59767;BME280;46248;58.364;25.582;2023-01-10T07:29:39;100327.03;;;-5.14;93.08
59767;BME280;46248;58.364;25.582;2023-01-10T07:33:01;100333.06;;;-5.06;92.97
59767;BME280;46248;58.364;25.582;2023-01-10T07:36:23;100333.97;;;-5.02;93.32
59767;BME280;46248;58.364;25.582;2023-01-10T07:39:45;100345.88;;;-4.99;93.53
59767;BME280;46248;58.364;25.582;2023-01-10T07:43:09;100350.19;;;-4.95;93.43
59767;BME280;46248;58.364;25.582;2023-01-10T07:46:32;100364.69;;;-4.93;93.39
59767;BME280;46248;58.364;25.582;2023-01-10T07:49:53;100368.09;;;-4.91;93.13
59767;BME280;46248;58.364;25.582;2023-01-10T07:53:15;100372.38;;;-4.88;93.39
59767;BME280;46248;58.364;25.582;2023-01-10T07:56:38;100382.63;;;-4.85;93.88
59767;BME280;46248;58.364;25.582;2023-01-10T08:00:01;100374.94;;;-4.85;94.20
59767;BME280;46248;58.364;25.582;2023-01-10T08:03:23;100363.84;;;-4.92;94.31
59767;BME280;46248;58.364;25.582;2023-01-10T08:06:45;100380.13;;;-4.76;94.73
59767;BME280;46248;58.364;25.582;2023-01-10T08:10:08;100376.75;;;-4.78;95.13
59767;BME280;46248;58.364;25.582;2023-01-10T08:13:31;100391.28;;;-4.66;95.20
59767;BME280;46248;58.364;25.582;2023-01-10T08:16:54;100364.00;;;-4.75;94.79
59767;BME280;46248;58.364;25.582;2023-01-10T08:20:16;100381.09;;;-4.63;94.80
59767;BME280;46248;58.364;25.582;2023-01-10T08:23:38;100381.19;;;-4.55;94.80
59767;BME280;46248;58.364;25.582;2023-01-10T08:27:01;100380.34;;;-4.51;95.02
59767;BME280;46248;58.364;25.582;2023-01-10T08:30:23;100396.59;;;-4.43;94.94
59767;BME280;46248;58.364;25.582;2023-01-10T08:33:46;100397.50;;;-4.38;95.21
59767;BME280;46248;58.364;25.582;2023-01-10T08:37:11;100384.72;;;-4.38;95.29
59767;BME280;46248;58.364;25.582;2023-01-10T08:40:33;100393.31;;;-4.28;95.12
59767;BME280;46248;58.364;25.582;2023-01-10T08:43:55;100385.63;;;-4.28;95.28
59767;BME280;46248;58.364;25.582;2023-01-10T08:47:17;100389.97;;;-4.20;95.60
59767;BME280;46248;58.364;25.582;2023-01-10T08:50:40;100395.09;;;-4.17;95.69
59767;BME280;46248;58.364;25.582;2023-01-10T08:54:03;100389.09;;;-4.19;95.65
59767;BME280;46248;58.364;25.582;2023-01-10T08:57:25;100400.22;;;-4.12;95.97
59767;BME280;46248;58.364;25.582;2023-01-10T09:00:46;100393.44;;;-4.07;96.15
59767;BME280;46248;58.364;25.582;2023-01-10T09:04:09;100401.16;;;-4.02;96.25
59767;BME280;46248;58.364;25.582;2023-01-10T09:07:32;100395.19;;;-4.01;96.37
59767;BME280;46248;58.364;25.582;2023-01-10T09:10:57;100386.69;;;-3.97;96.78
59767;BME280;46248;58.364;25.582;2023-01-10T09:14:19;100397.78;;;-3.91;97.16
59767;BME280;46248;58.364;25.582;2023-01-10T09:17:41;100389.31;;;-3.85;97.33
59767;BME280;46248;58.364;25.582;2023-01-10T09:21:03;100392.72;;;-3.81;97.61
59767;BME280;46248;58.364;25.582;2023-01-10T09:24:26;100383.38;;;-3.78;97.87
59767;BME280;46248;58.364;25.582;2023-01-10T09:27:55;100383.41;;;-3.75;97.80
59767;BME280;46248;58.364;25.582;2023-01-10T09:31:17;100381.69;;;-3.73;98.24
59767;BME280;46248;58.364;25.582;2023-01-10T09:34:38;100387.69;;;-3.67;98.51
59767;BME280;46248;58.364;25.582;2023-01-10T09:38:01;100383.41;;;-3.67;98.72
59767;BME280;46248;58.364;25.582;2023-01-10T09:41:38;100388.53;;;-3.67;98.88
59767;BME280;46248;58.364;25.582;2023-01-10T09:45:14;100395.38;;;-3.64;99.32
59767;BME280;46248;58.364;25.582;2023-01-10T09:48:44;100397.97;;;-3.63;99.60
59767;BME280;46248;58.364;25.582;2023-01-10T09:52:18;100402.22;;;-3.60;99.77
59767;BME280;46248;58.364;25.582;2023-01-10T09:55:45;100414.16;;;-3.58;100.00
59767;BME280;46248;58.364;25.582;2023-01-10T09:59:14;100406.53;;;-3.53;100.00
59767;BME280;46248;58.364;25.582;2023-01-10T10:02:40;100394.56;;;-3.53;100.00
59767;BME280;46248;58.364;25.582;2023-01-10T10:06:06;100408.25;;;-3.46;100.00
59767;BME280;46248;58.364;25.582;2023-01-10T10:09:33;100406.56;;;-3.41;100.00
59767;BME280;46248;58.364;25.582;2023-01-10T10:13:06;100409.13;;;-3.39;100.00
59767;BME280;46248;58.364;25.582;2023-01-10T10:16:48;100419.38;;;-3.33;100.00
59767;BME280;46248;58.364;25.582;2023-01-10T10:20:22;100406.63;;;-3.29;100.00
59767;BME280;46248;58.364;25.582;2023-01-10T10:24:04;100408.34;;;-3.26;100.00
59767;BME280;46248;58.364;25.582;2023-01-10T10:27:34;100401.50;;;-3.23;100.00
59767;BME280;46248;58.364;25.582;2023-01-10T10:31:03;100410.91;;;-3.18;100.00
59767;BME280;46248;58.364;25.582;2023-01-10T10:34:35;100405.81;;;-3.12;100.00
59767;BME280;46248;58.364;25.582;2023-01-10T10:38:04;100406.69;;;-3.04;100.00
59767;BME280;46248;58.364;25.582;2023-01-10T10:41:29;100408.38;;;-3.03;100.00
59767;BME280;46248;58.364;25.582;2023-01-10T10:44:58;100407.53;;;-3.04;100.00
59767;BME280;46248;58.364;25.582;2023-01-10T10:48:26;100404.97;;;-3.05;100.00
59767;BME280;46248;58.364;25.582;2023-01-10T10:51:52;100419.50;;;-2.95;100.00
59767;BME280;46248;58.364;25.582;2023-01-10T10:55:16;100417.81;;;-2.94;100.00
59767;BME280;46248;58.364;25.582;2023-01-10T10:58:42;100423.81;;;-2.86;100.00
59767;BME280;46248;58.364;25.582;2023-01-10T11:02:17;100420.38;;;-2.79;100.00
59767;BME280;46248;58.364;25.582;2023-01-10T11:05:44;100425.53;;;-2.71;100.00
59767;BME280;46248;58.364;25.582;2023-01-10T11:09:08;100422.13;;;-2.66;100.00
59767;BME280;46248;58.364;25.582;2023-01-10T11:12:32;100419.56;;;-2.58;100.00
59767;BME280;46248;58.364;25.582;2023-01-10T11:15:55;100411.03;;;-2.53;100.00
59767;BME280;46248;58.364;25.582;2023-01-10T11:39:15;100444.34;;;-2.05;100.00
59767;BME280;46248;58.364;25.582;2023-01-10T11:42:38;100444.34;;;-2.00;100.00
59767;BME280;46248;58.364;25.582;2023-01-10T11:46:02;100445.19;;;-1.97;100.00
59767;BME280;46248;58.364;25.582;2023-01-10T11:49:30;100436.63;;;-1.94;100.00
59767;BME280;46248;58.364;25.582;2023-01-10T11:52:55;100428.94;;;-1.91;100.00
59767;BME280;46248;58.364;25.582;2023-01-10T11:56:25;100436.63;;;-1.80;100.00
59767;BME280;46248;58.364;25.582;2023-01-10T11:59:52;100438.34;;;-1.81;100.00
59767;BME280;46248;58.364;25.582;2023-01-10T12:03:21;100444.28;;;-1.70;100.00
59767;BME280;46248;58.364;25.582;2023-01-10T12:06:49;100453.69;;;-1.63;100.00
59767;BME280;46248;58.364;25.582;2023-01-10T12:10:18;100463.09;;;-1.58;100.00
59767;BME280;46248;58.364;25.582;2023-01-10T12:13:47;100462.22;;;-1.54;100.00
59767;BME280;46248;58.364;25.582;2023-01-10T12:17:16;100465.63;;;-1.49;100.00
59767;BME280;46248;58.364;25.582;2023-01-10T12:20:44;100469.03;;;-1.49;100.00
59767;BME280;46248;58.364;25.582;2023-01-10T12:24:13;100480.16;;;-1.39;100.00
59767;BME280;46248;58.364;25.582;2023-01-10T12:27:36;100477.56;;;-1.34;100.00
59767;BME280;46248;58.364;25.582;2023-01-10T12:31:01;100488.69;;;-1.29;100.00
59767;BME280;46248;58.364;25.582;2023-01-10T12:34:32;100494.66;;;-1.27;100.00
59767;BME280;46248;58.364;25.582;2023-01-10T12:37:56;100503.22;;;-1.22;100.00
59767;BME280;46248;58.364;25.582;2023-01-10T12:41:27;100501.50;;;-1.20;100.00
59767;BME280;46248;58.364;25.582;2023-01-10T12:45:23;100496.34;;;-1.16;100.00
59767;BME280;46248;58.364;25.582;2023-01-10T12:48:53;100502.34;;;-1.12;100.00
59767;BME280;46248;58.364;25.582;2023-01-10T12:52:27;100498.03;;;-1.08;100.00
59767;BME280;46248;58.364;25.582;2023-01-10T12:55:52;100497.16;;;-1.07;100.00
59767;BME280;46248;58.364;25.582;2023-01-10T12:59:19;100498.84;;;-0.99;100.00
59767;BME280;46248;58.364;25.582;2023-01-10T13:02:59;100497.13;;;-0.98;100.00
59767;BME280;46248;58.364;25.582;2023-01-10T13:06:28;100512.53;;;-0.92;100.00
59767;BME280;46248;58.364;25.582;2023-01-10T13:09:51;100515.94;;;-0.90;100.00
59767;BME280;46248;58.364;25.582;2023-01-10T13:13:17;100509.94;;;-0.87;100.00
59767;BME280;46248;58.364;25.582;2023-01-10T13:16:44;100516.75;;;-0.85;100.00
59767;BME280;46248;58.364;25.582;2023-01-10T13:20:26;100518.50;;;-0.84;100.00
59767;BME280;46248;58.364;25.582;2023-01-10T13:23:51;100521.88;;;-0.79;100.00
59767;BME280;46248;58.364;25.582;2023-01-10T13:27:18;100525.31;;;-0.80;100.00
59767;BME280;46248;58.364;25.582;2023-01-10T13:30:41;100534.72;;;-0.79;100.00
59767;BME280;46248;58.364;25.582;2023-01-10T13:34:05;100519.38;;;-0.91;100.00
59767;BME280;46248;58.364;25.582;2023-01-10T13:37:33;100540.75;;;-0.75;100.00
59767;BME280;46248;58.364;25.582;2023-01-10T13:41:01;100524.47;;;-0.82;100.00
59767;BME280;46248;58.364;25.582;2023-01-10T13:44:24;100542.44;;;-0.70;100.00
59767;BME280;46248;58.364;25.582;2023-01-10T13:48:03;100546.69;;;-0.67;100.00
59767;BME280;46248;58.364;25.582;2023-01-10T13:51:26;100535.53;;;-0.64;100.00
59767;BME280;46248;58.364;25.582;2023-01-10T13:54:54;100548.34;;;-0.58;100.00
59767;BME280;46248;58.364;25.582;2023-01-10T13:58:39;100550.91;;;-0.55;100.00
59767;BME280;46248;58.364;25.582;2023-01-10T14:02:22;100562.91;;;-0.53;100.00
59767;BME280;46248;58.364;25.582;2023-01-10T14:05:51;100562.88;;;-0.50;100.00
59767;BME280;46248;58.364;25.582;2023-01-10T14:09:33;100563.75;;;-0.48;100.00
59767;BME280;46248;58.364;25.582;2023-01-10T14:12:59;100548.41;;;-0.63;100.00
59767;BME280;46248;58.364;25.582;2023-01-10T14:16:33;100578.28;;;-0.43;100.00
59767;BME280;46248;58.364;25.582;2023-01-10T14:20:00;100573.16;;;-0.42;100.00
59767;BME280;46248;58.364;25.582;2023-01-10T14:23:27;100571.38;;;-0.37;100.00
59767;BME280;46248;58.364;25.582;2023-01-10T14:26:51;100578.25;;;-0.36;100.00
59767;BME280;46248;58.364;25.582;2023-01-10T14:30:18;100579.06;;;-0.29;100.00
59767;BME280;46248;58.364;25.582;2023-01-10T14:33:43;100584.19;;;-0.26;100.00
59767;BME280;46248;58.364;25.582;2023-01-10T14:37:08;100569.63;;;-0.26;100.00
59767;BME280;46248;58.364;25.582;2023-01-10T14:40:39;100574.75;;;-0.24;100.00
59767;BME280;46248;58.364;25.582;2023-01-10T14:44:07;100584.16;;;-0.21;100.00
59767;BME280;46248;58.364;25.582;2023-01-10T14:47:33;100576.47;;;-0.23;100.00
59767;BME280;46248;58.364;25.582;2023-01-10T14:51:19;100577.34;;;-0.26;100.00
59767;BME280;46248;58.364;25.582;2023-01-10T14:54:41;100591.84;;;-0.18;100.00
59767;BME280;46248;58.364;25.582;2023-01-10T14:58:03;100564.50;;;-0.32;100.00
59767;BME280;46248;58.364;25.582;2023-01-10T15:01:27;100595.28;;;-0.12;100.00
59767;BME280;46248;58.364;25.582;2023-01-10T15:04:53;100597.81;;;-0.10;100.00
59767;BME280;46248;58.364;25.582;2023-01-10T15:08:20;100596.94;;;-0.08;100.00
59767;BME280;46248;58.364;25.582;2023-01-10T15:11:43;100591.78;;;-0.09;100.00
59767;BME280;46248;58.364;25.582;2023-01-10T15:15:11;100597.81;;;-0.06;100.00
59767;BME280;46248;58.364;25.582;2023-01-10T15:18:36;100596.94;;;-0.05;100.00
59767;BME280;46248;58.364;25.582;2023-01-10T15:22:01;100602.09;;;-0.05;100.00
59767;BME280;46248;58.364;25.582;2023-01-10T15:25:28;100602.06;;;-0.03;100.00
59767;BME280;46248;58.364;25.582;2023-01-10T15:29:05;100597.78;;;-0.03;100.00
59767;BME280;46248;58.364;25.582;2023-01-10T15:32:32;100603.75;;;-0.01;100.00
59767;BME280;46248;58.364;25.582;2023-01-10T15:36:02;100606.34;;;0.01;100.00
59767;BME280;46248;58.364;25.582;2023-01-10T15:39:27;100587.56;;;-0.15;100.00
59767;BME280;46248;58.364;25.582;2023-01-10T15:43:09;100617.47;;;0.05;100.00
59767;BME280;46248;58.364;25.582;2023-01-10T15:46:31;100614.03;;;0.04;100.00
59767;BME280;46248;58.364;25.582;2023-01-10T15:49:55;100613.16;;;0.05;100.00
59767;BME280;46248;58.364;25.582;2023-01-10T15:53:18;100614.91;;;0.02;100.00
59767;BME280;46248;58.364;25.582;2023-01-10T15:56:45;100628.59;;;0.08;100.00
59767;BME280;46248;58.364;25.582;2023-01-10T16:00:16;100633.75;;;0.10;100.00
59767;BME280;46248;58.364;25.582;2023-01-10T16:03:43;100635.44;;;0.12;100.00
59767;BME280;46248;58.364;25.582;2023-01-10T16:07:07;100650.88;;;0.14;100.00
59767;BME280;46248;58.364;25.582;2023-01-10T16:10:32;100645.72;;;0.15;100.00
59767;BME280;46248;58.364;25.582;2023-01-10T16:13:56;100656.00;;;0.17;100.00
59767;BME280;46248;58.364;25.582;2023-01-10T16:17:19;100660.28;;;0.18;100.00
59767;BME280;46248;58.364;25.582;2023-01-10T16:20:42;100655.13;;;0.19;100.00
59767;BME280;46248;58.364;25.582;2023-01-10T16:24:06;100662.00;;;0.22;100.00
59767;BME280;46248;58.364;25.582;2023-01-10T16:27:30;100666.25;;;0.23;100.00
59767;BME280;46248;58.364;25.582;2023-01-10T16:30:52;100667.13;;;0.23;100.00
59767;BME280;46248;58.364;25.582;2023-01-10T16:34:15;100674.81;;;0.27;100.00
59767;BME280;46248;58.364;25.582;2023-01-10T16:37:37;100667.13;;;0.23;100.00
59767;BME280;46248;58.364;25.582;2023-01-10T16:41:00;100664.53;;;0.28;100.00
59767;BME280;46248;58.364;25.582;2023-01-10T16:44:42;100667.09;;;0.28;100.00
59767;BME280;46248;58.364;25.582;2023-01-10T16:48:05;100679.09;;;0.29;100.00
59767;BME280;46248;58.364;25.582;2023-01-10T16:51:29;100667.94;;;0.29;100.00
59767;BME280;46248;58.364;25.582;2023-01-10T16:54:52;100672.22;;;0.34;100.00
59767;BME280;46248;58.364;25.582;2023-01-10T16:58:15;100678.19;;;0.36;100.00
59767;BME280;46248;58.364;25.582;2023-01-10T17:01:39;100681.63;;;0.35;100.00
59767;BME280;46248;58.364;25.582;2023-01-10T17:05:03;100689.38;;;0.37;100.00
59767;BME280;46248;58.364;25.582;2023-01-10T17:08:27;100693.63;;;0.38;100.00
59767;BME280;46248;58.364;25.582;2023-01-10T17:11:53;100693.63;;;0.38;100.00
59767;BME280;46248;58.364;25.582;2023-01-10T17:15:18;100681.63;;;0.38;100.00
59767;BME280;46248;58.364;25.582;2023-01-10T17:18:41;100685.03;;;0.39;100.00
59767;BME280;46248;58.364;25.582;2023-01-10T17:22:03;100688.47;;;0.36;100.00
59767;BME280;46248;58.364;25.582;2023-01-10T17:25:26;100692.75;;;0.43;100.00
59767;BME280;46248;58.364;25.582;2023-01-10T17:28:48;100691.91;;;0.40;100.00
59767;BME280;46248;58.364;25.582;2023-01-10T17:32:10;100703.06;;;0.43;100.00
59767;BME280;46248;58.364;25.582;2023-01-10T17:35:32;100707.31;;;0.44;100.00
59767;BME280;46248;58.364;25.582;2023-01-10T17:38:54;100703.06;;;0.43;100.00
59767;BME280;46248;58.364;25.582;2023-01-10T17:42:18;100704.72;;;0.48;100.00
59767;BME280;46248;58.364;25.582;2023-01-10T17:45:43;100697.91;;;0.43;100.00
59767;BME280;46248;58.364;25.582;2023-01-10T17:49:05;100703.84;;;0.50;100.00
59767;BME280;46248;58.364;25.582;2023-01-10T17:52:27;100717.59;;;0.52;100.00
59767;BME280;46248;58.364;25.582;2023-01-10T17:55:49;100714.16;;;0.52;100.00
59767;BME280;46248;58.364;25.582;2023-01-10T17:59:13;100712.44;;;0.52;100.00
59767;BME280;46248;58.364;25.582;2023-01-10T18:02:35;100707.25;;;0.54;100.00